METAR Data
IDs: Format: Raw Decoded Include TAF

Data at: 2222 UTC 10 May 2021

KC07 102215Z AUTO 30003KT 1/2SM SN OVC001 M03/M03 A3007 RMK AO2
KC07 102155Z AUTO 31006G15KT 1/2SM -SN OVC003 M02/M02 A3007 RMK AO2 LTG DSNT SW
KC07 102135Z AUTO 00000KT 10SM BKN006 BKN013 OVC019 M01/M01 A3007 RMK AO2
KC07 102115Z AUTO 00000KT 10SM BKN006 BKN012 OVC019 M01/M01 A3007 RMK AO2
KC07 102055Z AUTO 29003KT 10SM TS BKN004 BKN013 OVC022 M01/M01 A3006 RMK AO2
KC07 102035Z AUTO 27003KT 2 1/2SM -TSSN BKN002 BKN007 OVC013 M02/M02 A3006 RMK AO2
KC07 102015Z AUTO 26003KT 3/4SM -SN OVC002 M02/M02 A3006 RMK AO2 LTG DSNT SW
KC07 101955Z AUTO 00000KT 3/4SM -SN OVC002 M02/M02 A3006 RMK AO2
KC07 101935Z AUTO 26003KT 2SM -SN OVC002 M02/M02 A3006 RMK AO2 VIS 1V5
KC07 101915Z AUTO 27003KT 2SM -SN BKN004 BKN008 OVC014 M02/M02 A3005 RMK AO2
KC07 101855Z AUTO 30004KT 2SM -SN BKN004 OVC007 M01/M01 A3006 RMK AO2
KC07 101835Z AUTO 00000KT 7SM BKN002 BKN008 OVC025 M02/M02 A3007 RMK AO2
KC07 101815Z AUTO 00000KT 3/4SM -SN OVC002 M02/M02 A3007 RMK AO2
KC07 101755Z AUTO 28003KT 3/4SM -VCTSSN OVC004 M02/M02 A3007 RMK AO2
KC07 101735Z AUTO 32003KT 1 1/4SM -SN OVC002 M02/M02 A3007 RMK AO2
KC07 101715Z AUTO 30004KT 3/4SM -SN OVC002 M02/M02 A3007 RMK AO2
KC07 101655Z AUTO 00000KT 3/4SM -SN OVC002 M02/M02 A3007 RMK AO2
KC07 101635Z AUTO 00000KT 3/4SM -SN OVC002 M02/M02 A3007 RMK AO2
KC07 101615Z AUTO 00000KT 1 1/4SM -SN OVC004 M02/M02 A3007 RMK AO2
KC07 101555Z AUTO 00000KT 10SM BKN004 OVC009 M02/M02 A3007 RMK AO2
KC07 101535Z AUTO 25003KT 10SM BKN002 OVC007 M02/M02 A3007 RMK AO2
KC07 101515Z AUTO 00000KT 5SM BR OVC002 M03/M03 A3007 RMK AO2
KC07 101455Z AUTO 00000KT 5SM BR BKN004 OVC010 M03/M03 A3007 RMK AO2
KC07 101435Z AUTO 00000KT 1 3/4SM -SN OVC002 M02/M02 A3007 RMK AO2
KC07 101415Z AUTO 00000KT 1 1/2SM -SN OVC002 M03/M03 A3007 RMK AO2
KC07 101355Z AUTO 00000KT 2SM -SN OVC002 M03/M03 A3008 RMK AO2 VIS 1V4
KC07 101335Z AUTO 00000KT 4SM BR OVC002 M03/M03 A3007 RMK AO2
KC07 101315Z AUTO 00000KT 2SM BR OVC002 M03/M03 A3007 RMK AO2 VIS 1V5
KC07 101255Z AUTO 00000KT 1SM BR OVC002 M03/M03 A3007 RMK AO2
KC07 101235Z AUTO 00000KT 1SM BR OVC002 M03/M03 A3006 RMK AO2
KC07 101215Z AUTO 00000KT 1/2SM -SN OVC002 M03/M03 A3007 RMK AO2
KC07 101155Z AUTO 00000KT 1 3/4SM -SN OVC002 M03/M03 A3006 RMK AO2 VIS 1V3
KC07 101135Z AUTO 00000KT 3SM BR OVC002 M03/M03 A3007 RMK AO2
KC07 101115Z AUTO 00000KT 3/4SM BR OVC002 M03/M03 A3007 RMK AO2
KC07 101055Z AUTO 00000KT 1/2SM FZFG OVC004 M04/M04 A3007 RMK AO2
KC07 101035Z AUTO 00000KT 1/2SM SN OVC002 M04/M04 A3007 RMK AO2
KC07 101015Z AUTO 00000KT 1SM -SN OVC002 M04/M04 A3007 RMK AO2
KC07 100955Z AUTO 00000KT 3/4SM -SN OVC002 M04/M04 A3007 RMK AO2
KC07 100935Z AUTO 00000KT 1SM -SN OVC002 M04/M04 A3007 RMK AO2
KC07 100915Z AUTO 00000KT 3/4SM SN OVC002 M04/M04 A3009 RMK AO2
KC07 100855Z AUTO 00000KT 1/2SM SN OVC002 M04/M04 A3008 RMK AO2
KC07 100835Z AUTO 00000KT 1/2SM FZFG OVC002 M04/M04 A3009 RMK AO2
KC07 100815Z AUTO 00000KT 3/4SM BR OVC002 M05/M05 A3010 RMK AO2
KC07 100755Z AUTO 00000KT 1/2SM FZFG OVC002 M04/M04 A3010 RMK AO2
KC07 100735Z AUTO 00000KT 4SM BR BKN002 BKN075 M04/M04 A3010 RMK AO2
KC07 100715Z AUTO 00000KT 3/4SM -SN OVC002 M04/M04 A3012 RMK AO2
KC07 100655Z AUTO 00000KT 1/2SM FZFG OVC002 M04/M04 A3012 RMK AO2 LTG DSNT SE
KC07 100635Z AUTO 13003KT 1/4SM FZFG OVC002 M04/M04 A3012 RMK AO2
KC07 100615Z AUTO 00000KT 2 1/2SM BR SCT002 BKN050 OVC090 M04/M04 A3012 RMK AO2
KC07 100555Z AUTO 00000KT 10SM SCT050 BKN090 OVC110 M03/M05 A3012 RMK AO2
KC07 100535Z AUTO 00000KT 10SM SCT048 BKN060 OVC090 M03/M05 A3012 RMK AO2
KC07 100515Z AUTO 00000KT 10SM SCT032 BKN050 OVC070 M03/M06 A3012 RMK AO2 LTG DSNT SE
KC07 100455Z AUTO 00000KT 10SM SCT030 BKN036 OVC045 M03/M05 A3013 RMK AO2
KC07 100435Z AUTO 00000KT 10SM SCT028 BKN038 OVC044 M02/M06 A3013 RMK AO2
KC07 100415Z AUTO 25003KT 10SM SCT008 BKN028 OVC032 M02/M06 A3014 RMK AO2
KC07 100355Z AUTO 00000KT 2 1/2SM -SN BKN008 BKN014 OVC034 M02/M05 A3014 RMK AO2
KC07 100335Z AUTO 00000KT 10SM SCT013 BKN022 OVC036 M02/M06 A3014 RMK AO2
KC07 100315Z AUTO 00000KT 4SM -SN BKN011 OVC020 M02/M05 A3014 RMK AO2
KC07 100255Z AUTO 29003KT 4SM -SN BKN011 BKN017 OVC023 M02/M06 A3014 RMK AO2
KC07 100235Z AUTO 31004KT 5SM -SN SCT010 BKN019 OVC027 M02/M06 A3013 RMK AO2
KC07 100215Z AUTO 31003KT 7SM SCT011 BKN025 OVC038 M01/M07 A3012 RMK AO2
KC07 100155Z AUTO 29005KT 10SM SCT026 BKN031 OVC037 M01/M08 A3012 RMK AO2
KC07 100135Z AUTO 26003KT 10SM SCT027 BKN032 OVC050 M01/M08 A3012 RMK AO2
KC07 100115Z AUTO 30004KT 10SM SCT016 BKN034 OVC043 M01/M08 A3012 RMK AO2
KC07 100055Z AUTO 00000KT 10SM SCT024 BKN037 OVC045 00/M08 A3012 RMK AO2
KC07 100035Z AUTO 24005KT 10SM SCT020 BKN037 OVC043 00/M08 A3012 RMK AO2
KC07 100015Z AUTO 29006KT 7SM SCT024 BKN033 OVC043 00/M08 A3011 RMK AO2
KC07 092355Z AUTO 29004KT 10SM SCT027 BKN034 OVC046 00/M08 A3011 RMK AO2
KC07 092335Z AUTO 30008KT 260V320 10SM SCT034 BKN044 OVC080 00/M08 A3010 RMK AO2
KC07 092315Z AUTO 30008KT 230V330 10SM SCT050 SCT065 BKN075 01/M09 A3009 RMK AO2
KC07 092255Z AUTO 29007KT 260V320 10SM SCT043 SCT050 BKN110 02/M10 A3009 RMK AO2
KC07 092235Z AUTO 30005KT 10SM SCT043 SCT050 OVC075 02/M09 A3010 RMK AO2
KC07 092215Z AUTO 27004KT 10SM SCT060 OVC085 01/M10 A3010 RMK AO2
KC07 092155Z AUTO 28004KT 10SM SCT038 BKN050 OVC090 01/M10 A3010 RMK AO2
KC07 092135Z AUTO 26004KT 10SM SCT042 SCT075 BKN090 02/M10 A3010 RMK AO2
KC07 092115Z AUTO 31006KT 10SM BKN090 OVC110 02/M10 A3010 RMK AO2
KC07 092055Z AUTO 31006KT 10SM OVC090 01/M11 A3010 RMK AO2
KC07 092035Z AUTO 30004KT 10SM SCT070 BKN090 01/M10 A3010 RMK AO2
KC07 092015Z AUTO 28003KT 10SM SCT060 BKN070 OVC090 01/M11 A3010 RMK AO2
KC07 091955Z AUTO 31005KT 10SM SCT050 SCT070 BKN100 01/M11 A3010 RMK AO2
KC07 091935Z AUTO 27005KT 10SM SCT070 SCT100 02/M11 A3010 RMK AO2
KC07 091915Z AUTO 29007KT 10SM BKN060 BKN070 01/M11 A3010 RMK AO2
KC07 091855Z AUTO 29004KT 10SM BKN060 OVC070 01/M11 A3011 RMK AO2
KC07 091835Z AUTO 28005KT 10SM SCT065 SCT070 BKN080 01/M12 A3011 RMK AO2
KC07 091815Z AUTO 28005KT 10SM SCT090 02/M11 A3012 RMK AO2
KC07 091755Z AUTO 26005KT 10SM BKN080 BKN110 01/M11 A3012 RMK AO2
KC07 091735Z AUTO 27004KT 10SM SCT075 BKN090 OVC100 01/M12 A3012 RMK AO2
KC07 091715Z AUTO 26003KT 10SM SCT075 BKN090 BKN120 00/M12 A3012 RMK AO2
KC07 091655Z AUTO 30003KT 10SM SCT120 00/M13 A3013 RMK AO2
KC07 091635Z AUTO 23003KT 10SM CLR 00/M12 A3012 RMK AO2
KC07 091615Z AUTO 00000KT 10SM CLR M01/M13 A3012 RMK AO2
KC07 091555Z AUTO 25003KT 10SM SCT095 M02/M12 A3012 RMK AO2
KC07 091535Z AUTO 00000KT 10SM OVC100 M02/M13 A3012 RMK AO2
KC07 091515Z AUTO 00000KT 10SM BKN090 OVC110 M02/M13 A3013 RMK AO2
KC07 091455Z AUTO 00000KT 10SM SCT080 BKN100 BKN120 M03/M13 A3013 RMK AO2
KC07 091435Z AUTO 00000KT 10SM BKN110 M03/M13 A3014 RMK AO2
KC07 091415Z AUTO 28003KT 10SM SCT095 SCT110 M04/M13 A3014 RMK AO2
KC07 091355Z AUTO 32003KT 10SM BKN110 M05/M13 A3013 RMK AO2
KC07 091335Z AUTO 00000KT 10SM BKN110 M05/M12 A3012 RMK AO2
KC07 091315Z AUTO 00000KT 10SM BKN110 M05/M12 A3012 RMK AO2
KC07 091255Z AUTO 00000KT 10SM SCT120 M06/M12 A3012 RMK AO2
KC07 091235Z AUTO 32003KT 10SM CLR M06/M12 A3012 RMK AO2
KC07 091215Z AUTO 32004KT 10SM CLR M07/M12 A3011 RMK AO2
KC07 091155Z AUTO 33003KT 10SM CLR M07/M12 A3011 RMK AO2
KC07 091135Z AUTO 31004KT 10SM CLR M07/M12 A3011 RMK AO2
KC07 091115Z AUTO 30003KT 10SM CLR M07/M12 A3012 RMK AO2
KC07 091055Z AUTO 31005KT 10SM CLR M07/M12 A3012 RMK AO2
KC07 091035Z AUTO 30003KT 10SM CLR M07/M12 A3012 RMK AO2